Time;durP1;ratioP1;P1;durP2;ratioP2;P2;SDS_P1;SDS_P2;PMS_P1;PMS_P2;Temp;Humidity;BMP_temperature;BMP_pressure;BME280_temperature;BME280_humidity;BME280_pressure;Samples;Min_cycle;Max_cycle;Signal;HPM_P1;HPM_P2
2022/12/25 00:00:13;;;;;;;189.48;121.30;;;6.00;99.90;;;;;;5050404;28;20053;-70
2022/12/25 00:02:39;;;;;;;203.88;125.68;;;6.10;99.90;;;;;;5037253;28;20152;-70
2022/12/25 00:05:05;;;;;;;251.68;153.27;;;6.10;99.90;;;;;;5039107;28;20862;-72
2022/12/25 00:07:32;;;;;;;189.52;126.07;;;6.00;99.90;;;;;;5055425;28;20025;-73
2022/12/25 00:09:57;;;;;;;315.85;156.95;;;6.00;99.90;;;;;;5056451;28;20029;-73
2022/12/25 00:12:24;;;;;;;228.88;125.28;;;5.80;99.90;;;;;;5055869;28;20170;-71
2022/12/25 00:14:49;;;;;;;165.30;104.40;;;5.70;99.90;;;;;;5042850;28;20100;-70
2022/12/25 00:17:16;;;;;;;173.43;106.10;;;5.80;99.90;;;;;;5056086;28;20017;-71
2022/12/25 00:19:41;;;;;;;160.20;106.78;;;5.70;99.90;;;;;;5049608;28;20013;-70
2022/12/25 00:22:07;;;;;;;142.80;93.80;;;5.80;99.90;;;;;;5043344;28;20062;-69
2022/12/25 00:24:33;;;;;;;171.35;112.55;;;5.80;99.90;;;;;;5042483;28;20079;-70
2022/12/25 00:26:59;;;;;;;145.73;101.57;;;5.90;99.90;;;;;;5056094;28;20461;-72
2022/12/25 00:29:25;;;;;;;118.57;87.65;;;5.90;99.90;;;;;;5055239;28;20025;-71
2022/12/25 00:31:51;;;;;;;133.70;90.38;;;5.90;99.90;;;;;;5043412;28;20476;-73
2022/12/25 00:34:17;;;;;;;118.15;83.40;;;6.00;99.90;;;;;;5055896;28;20049;-71
2022/12/25 00:36:43;;;;;;;122.63;86.53;;;6.00;99.90;;;;;;5055793;28;20036;-71
2022/12/25 00:39:09;;;;;;;128.32;84.47;;;6.00;99.90;;;;;;5055777;28;20025;-71
2022/12/25 00:44:19;;;;;;;119.85;82.68;;;6.00;99.90;;;;;;5051511;28;20033;-70
2022/12/25 00:46:45;;;;;;;128.25;92.38;;;6.00;99.90;;;;;;5046072;28;20029;-73
2022/12/25 00:49:11;;;;;;;285.83;141.93;;;5.90;99.90;;;;;;5055397;28;20048;-70
2022/12/25 00:51:37;;;;;;;249.00;138.30;;;5.80;99.90;;;;;;5055846;28;20480;-72
2022/12/25 00:54:03;;;;;;;254.00;140.18;;;5.70;99.90;;;;;;5055401;28;20468;-71
2022/12/25 00:56:29;;;;;;;194.68;119.82;;;5.60;99.90;;;;;;5055608;28;20022;-72
2022/12/25 00:58:55;;;;;;;216.60;132.95;;;5.70;99.90;;;;;;5055174;28;20020;-71
2022/12/25 01:01:21;;;;;;;192.88;131.32;;;5.70;99.90;;;;;;5055404;28;20017;-71
2022/12/25 01:03:46;;;;;;;154.48;97.13;;;5.70;99.90;;;;;;5055203;28;20428;-72
2022/12/25 01:06:12;;;;;;;159.52;102.30;;;5.70;99.90;;;;;;5055301;28;20029;-72
2022/12/25 01:11:24;;;;;;;162.90;112.40;;;5.70;99.90;;;;;;5041810;28;20034;-72
2022/12/25 01:13:50;;;;;;;157.20;109.13;;;5.70;99.90;;;;;;5054820;28;20067;-70
2022/12/25 01:16:16;;;;;;;189.43;122.07;;;5.70;99.90;;;;;;5050535;28;20060;-70
2022/12/25 01:18:43;;;;;;;160.35;112.28;;;5.70;99.90;;;;;;5044397;28;20017;-70
2022/12/25 01:21:11;;;;;;;176.35;120.82;;;5.70;99.90;;;;;;5053870;28;20507;-71
2022/12/25 01:23:37;;;;;;;284.08;166.48;;;5.70;99.90;;;;;;5049501;28;20021;-70
2022/12/25 01:26:07;;;;;;;194.63;131.63;;;5.70;99.90;;;;;;5055107;28;20033;-72
2022/12/25 01:28:34;;;;;;;219.25;143.18;;;5.70;99.90;;;;;;5054818;28;20087;-71
2022/12/25 01:31:00;;;;;;;239.85;147.95;;;5.60;99.90;;;;;;5053001;28;20039;-71
2022/12/25 01:33:26;;;;;;;195.63;121.75;;;5.60;99.90;;;;;;5045767;28;20033;-71
2022/12/25 01:35:52;;;;;;;205.35;140.10;;;5.50;99.90;;;;;;5050111;28;20029;-71
2022/12/25 01:38:18;;;;;;;165.40;108.78;;;5.50;99.90;;;;;;5051032;28;20021;-73
2022/12/25 01:40:43;;;;;;;153.18;102.80;;;5.60;99.90;;;;;;5054651;28;20151;-71
2022/12/25 01:43:31;;;;;;;151.75;100.40;;;5.60;99.90;;;;;;5051550;28;20017;-72
2022/12/25 01:45:57;;;;;;;166.18;95.93;;;5.60;99.90;;;;;;5054494;28;20111;-71
2022/12/25 01:48:31;;;;;;;133.95;83.50;;;5.60;99.90;;;;;;5054550;28;20549;-74
2022/12/25 01:51:01;;;;;;;160.95;98.80;;;5.50;99.90;;;;;;5054493;28;20024;-71
2022/12/25 01:53:28;;;;;;;161.63;90.60;;;5.30;99.90;;;;;;5041328;28;20037;-71
2022/12/25 01:56:00;;;;;;;130.10;82.40;;;5.10;99.90;;;;;;5054171;28;20480;-71
2022/12/25 01:58:27;;;;;;;108.55;64.15;;;4.90;99.90;;;;;;5041409;28;20029;-72
2022/12/25 02:00:53;;;;;;;90.45;62.22;;;4.80;99.90;;;;;;5046970;28;20034;-71
2022/12/25 02:03:20;;;;;;;88.43;66.10;;;4.70;99.90;;;;;;5047436;28;20518;-71
2022/12/25 02:05:47;;;;;;;79.05;58.88;;;4.70;99.90;;;;;;5042106;28;20476;-71
2022/12/25 02:08:16;;;;;;;73.05;53.95;;;4.70;99.90;;;;;;5054141;28;20052;-71
2022/12/25 02:10:43;;;;;;;80.82;58.50;;;4.80;99.90;;;;;;5054279;28;20427;-71
2022/12/25 02:13:14;;;;;;;116.82;83.63;;;4.80;99.90;;;;;;5054084;28;20029;-72
2022/12/25 02:15:46;;;;;;;127.68;87.72;;;4.70;99.90;;;;;;5035063;28;20073;-71
2022/12/25 02:18:35;;;;;;;138.68;82.80;;;4.70;99.90;;;;;;5048588;28;20039;-71
2022/12/25 02:21:38;;;;;;;136.68;78.72;;;4.70;99.90;;;;;;5053813;28;20048;-70
2022/12/25 02:24:28;;;;;;;124.20;72.03;;;4.70;99.90;;;;;;5041865;28;20120;-70
2022/12/25 02:27:01;;;;;;;169.80;73.82;;;4.80;99.90;;;;;;5052575;28;20749;-71
2022/12/25 02:29:58;;;;;;;161.70;78.93;;;4.80;99.90;;;;;;5053754;28;20029;-71
2022/12/25 02:34:01;;;;;;;187.50;82.55;;;4.80;99.90;;;;;;5043170;28;20033;-71
2022/12/25 02:35:45;;;;;;;126.90;65.50;;;4.80;99.90;;;;;;5053606;28;20033;-70
2022/12/25 02:38:35;;;;;;;105.70;68.60;;;4.90;99.90;;;;;;5032314;28;20053;-70
2022/12/25 02:41:08;;;;;;;119.28;70.00;;;5.00;99.90;;;;;;5047703;28;20021;-71
2022/12/25 03:06:43;;;;;;;128.70;73.40;;;5.30;99.90;;;;;;5048624;28;20399;-71
2022/12/25 03:12:30;;;;;;;92.25;59.33;;;5.10;99.90;;;;;;5052812;28;20115;-71
2022/12/25 03:17:41;;;;;;;118.78;67.15;;;5.10;99.90;;;;;;5048107;28;20060;-70
2022/12/25 03:28:23;;;;;;;92.93;57.13;;;5.30;99.90;;;;;;5040774;28;20112;-70
2022/12/25 03:31:19;;;;;;;89.90;57.33;;;5.40;99.90;;;;;;5040317;28;20104;-70
2022/12/25 04:38:07;;;;;;;94.30;65.88;;;5.80;99.90;;;;;;4994442;28;20026;-70
2022/12/25 04:40:32;;;;;;;112.95;75.35;;;5.80;99.90;;;;;;4994517;28;20490;-71
2022/12/25 04:42:58;;;;;;;94.00;65.97;;;5.90;99.90;;;;;;4994613;28;20064;-70
2022/12/25 04:45:24;;;;;;;94.43;67.60;;;5.80;99.90;;;;;;4994540;28;20022;-71
2022/12/25 04:47:50;;;;;;;117.07;82.45;;;5.80;99.90;;;;;;4994064;28;20085;-70
2022/12/25 04:50:16;;;;;;;110.75;78.03;;;5.70;99.90;;;;;;4994223;28;20045;-71
2022/12/25 04:52:41;;;;;;;119.35;87.35;;;5.70;99.90;;;;;;4994237;28;20077;-70
2022/12/25 04:55:09;;;;;;;106.40;79.85;;;5.70;99.90;;;;;;4994284;28;20125;-71
2022/12/25 04:57:35;;;;;;;129.65;90.38;;;5.70;99.90;;;;;;4994010;28;20085;-73
2022/12/25 05:00:01;;;;;;;125.35;83.90;;;5.70;99.90;;;;;;4994464;28;20042;-71
2022/12/25 05:02:27;;;;;;;156.65;111.78;;;5.70;99.90;;;;;;4993807;28;20023;-71
2022/12/25 05:04:53;;;;;;;141.50;95.45;;;5.70;99.90;;;;;;4994024;28;20473;-71
2022/12/25 05:07:18;;;;;;;133.13;89.63;;;5.80;99.90;;;;;;4992793;28;20117;-71
2022/12/25 05:09:44;;;;;;;146.63;101.63;;;5.80;99.90;;;;;;4982844;28;20043;-70
2022/12/25 05:12:11;;;;;;;143.50;97.80;;;5.80;99.90;;;;;;5014721;28;20036;-71
2022/12/25 05:14:38;;;;;;;119.97;87.15;;;5.90;99.90;;;;;;5055131;28;20029;-71
2022/12/25 05:17:06;;;;;;;133.98;90.85;;;5.90;99.90;;;;;;5044843;28;20373;-71
2022/12/25 05:19:32;;;;;;;123.47;87.05;;;5.90;99.90;;;;;;5053877;28;20068;-71
2022/12/25 05:21:58;;;;;;;166.52;115.82;;;5.80;99.90;;;;;;5054866;28;20052;-71
2022/12/25 05:24:26;;;;;;;158.75;114.53;;;5.70;99.90;;;;;;5055139;28;20032;-71
2022/12/25 05:26:53;;;;;;;154.35;115.10;;;5.70;99.90;;;;;;5055308;28;20021;-71
2022/12/25 05:29:18;;;;;;;164.48;117.78;;;5.70;99.90;;;;;;5050779;28;20029;-71
2022/12/25 05:31:44;;;;;;;160.60;114.43;;;5.70;99.90;;;;;;5054895;28;20107;-71
2022/12/25 05:34:10;;;;;;;118.95;81.70;;;5.70;99.90;;;;;;5055001;28;20124;-71
2022/12/25 05:36:37;;;;;;;141.18;102.55;;;5.70;99.90;;;;;;5054638;28;20051;-71
2022/12/25 05:39:03;;;;;;;113.85;84.72;;;5.60;99.90;;;;;;5054623;28;20024;-71
2022/12/25 05:41:28;;;;;;;114.05;82.18;;;5.60;99.90;;;;;;5054626;28;20542;-71
2022/12/25 05:43:54;;;;;;;117.03;87.07;;;5.60;99.90;;;;;;5054091;28;20112;-71
2022/12/25 05:46:20;;;;;;;113.97;82.82;;;5.50;99.90;;;;;;5052432;28;20087;-71
2022/12/25 05:48:46;;;;;;;117.15;82.95;;;5.50;99.90;;;;;;5054705;28;20392;-71
2022/12/25 05:51:13;;;;;;;113.25;79.88;;;5.50;99.90;;;;;;5050167;28;20357;-71
2022/12/25 05:53:40;;;;;;;103.18;75.68;;;5.40;99.90;;;;;;5054075;28;20123;-71
2022/12/25 05:56:07;;;;;;;116.03;84.40;;;5.40;99.90;;;;;;5041161;28;20112;-71
2022/12/25 05:58:35;;;;;;;117.53;83.93;;;5.40;99.90;;;;;;5053893;28;20025;-72
2022/12/25 06:01:01;;;;;;;139.98;95.18;;;5.40;99.90;;;;;;5045770;28;20057;-71
2022/12/25 06:03:27;;;;;;;202.43;138.70;;;5.40;99.90;;;;;;5045755;28;20056;-71
2022/12/25 06:05:53;;;;;;;157.45;109.40;;;5.50;99.90;;;;;;5049133;28;20036;-70
2022/12/25 06:08:19;;;;;;;182.90;133.23;;;5.60;99.90;;;;;;5027595;28;20025;-71
2022/12/25 06:10:46;;;;;;;142.02;100.38;;;5.60;99.90;;;;;;5049894;28;20429;-70
2022/12/25 06:13:12;;;;;;;137.43;96.80;;;5.60;99.90;;;;;;5053560;28;20100;-71
2022/12/25 06:15:41;;;;;;;146.98;104.70;;;5.60;99.90;;;;;;5052469;28;20484;-71
2022/12/25 06:18:07;;;;;;;153.65;106.30;;;5.60;99.90;;;;;;5053559;28;20025;-71
2022/12/25 06:20:33;;;;;;;131.57;94.78;;;5.60;99.90;;;;;;5053667;28;20106;-71
2022/12/25 06:23:00;;;;;;;133.07;96.70;;;5.70;99.90;;;;;;5053477;28;20025;-72
2022/12/25 06:25:25;;;;;;;114.43;85.85;;;5.70;99.90;;;;;;5053005;28;20025;-70
2022/12/25 06:27:51;;;;;;;121.25;86.78;;;5.70;99.90;;;;;;5053699;28;20434;-71
2022/12/25 06:30:17;;;;;;;116.93;87.60;;;5.70;99.90;;;;;;5053271;28;20025;-71
2022/12/25 06:32:43;;;;;;;194.45;108.10;;;5.70;99.90;;;;;;5053203;28;20473;-72
2022/12/25 06:35:09;;;;;;;120.43;90.78;;;5.70;99.90;;;;;;5052928;28;20047;-71
2022/12/25 06:37:34;;;;;;;142.65;100.78;;;5.70;99.90;;;;;;5043061;28;20159;-70
2022/12/25 06:40:00;;;;;;;128.45;92.75;;;5.60;99.90;;;;;;5046264;28;20043;-72
2022/12/25 06:42:26;;;;;;;178.18;125.50;;;5.70;99.90;;;;;;5045079;28;20075;-71
2022/12/25 06:44:52;;;;;;;154.77;109.20;;;5.80;99.90;;;;;;5048128;28;20027;-71
2022/12/25 06:47:17;;;;;;;145.65;102.32;;;5.90;99.90;;;;;;5045901;28;20387;-70
2022/12/25 06:49:43;;;;;;;138.77;96.43;;;5.90;99.90;;;;;;5052299;28;20447;-70
2022/12/25 06:52:09;;;;;;;147.43;109.63;;;5.90;99.90;;;;;;5049999;28;20028;-70
2022/12/25 06:54:35;;;;;;;171.25;113.22;;;5.90;99.90;;;;;;5050113;28;20473;-71
2022/12/25 06:57:01;;;;;;;157.48;113.45;;;6.00;99.90;;;;;;5049935;28;20020;-70
2022/12/25 06:59:27;;;;;;;130.93;92.63;;;6.10;99.90;;;;;;5052054;28;20025;-71
2022/12/25 07:01:55;;;;;;;133.77;101.80;;;6.10;99.90;;;;;;5051085;28;20396;-71
2022/12/25 07:04:36;;;;;;;121.68;92.50;;;6.00;99.90;;;;;;5047132;28;20039;-70
2022/12/25 07:07:03;;;;;;;144.07;102.93;;;6.10;99.90;;;;;;5052423;28;20092;-71
2022/12/25 07:09:29;;;;;;;136.60;101.47;;;6.20;99.90;;;;;;5039670;28;20021;-71
2022/12/25 07:12:05;;;;;;;138.45;100.32;;;6.20;99.90;;;;;;5052470;28;20092;-71
2022/12/25 07:14:31;;;;;;;137.82;104.93;;;6.30;99.90;;;;;;5052703;28;20044;-70
2022/12/25 07:16:57;;;;;;;148.13;104.78;;;6.40;99.90;;;;;;5043771;28;20400;-71
2022/12/25 07:19:23;;;;;;;233.77;164.95;;;6.40;99.90;;;;;;5046897;28;20037;-70
2022/12/25 07:21:49;;;;;;;124.28;90.68;;;6.40;99.90;;;;;;5049320;28;20053;-70
2022/12/25 07:24:19;;;;;;;99.90;77.72;;;6.40;99.90;;;;;;5049628;28;20036;-71
2022/12/25 07:26:45;;;;;;;105.25;73.65;;;6.50;99.90;;;;;;5052409;28;20025;-73
2022/12/25 07:29:11;;;;;;;95.78;68.97;;;6.60;99.90;;;;;;5052687;28;20039;-70
2022/12/25 07:31:36;;;;;;;62.20;46.10;;;6.60;99.90;;;;;;5052558;28;20029;-70
2022/12/25 07:34:02;;;;;;;59.03;41.50;;;6.70;99.90;;;;;;5051711;28;20032;-70
2022/12/25 07:36:29;;;;;;;69.75;45.55;;;6.90;99.90;;;;;;5049460;28;20022;-71
2022/12/25 07:38:55;;;;;;;63.83;45.15;;;7.00;99.90;;;;;;5041525;28;20017;-70
2022/12/25 07:41:22;;;;;;;75.78;53.35;;;7.10;99.90;;;;;;5042439;28;20021;-71
2022/12/25 07:43:53;;;;;;;68.90;49.70;;;7.20;99.90;;;;;;5043286;28;20021;-71
2022/12/25 07:46:21;;;;;;;72.25;52.63;;;7.30;99.90;;;;;;5042331;28;20029;-70
2022/12/25 07:48:47;;;;;;;69.95;50.10;;;7.40;99.90;;;;;;5041413;28;20025;-71
2022/12/25 07:51:15;;;;;;;80.57;52.97;;;7.50;99.90;;;;;;5043131;28;20029;-71
2022/12/25 07:53:41;;;;;;;74.82;53.42;;;7.60;99.90;;;;;;5042139;28;20068;-71
2022/12/25 07:56:13;;;;;;;69.47;50.30;;;7.70;99.90;;;;;;5041270;28;20025;-71
2022/12/25 07:58:39;;;;;;;68.65;52.83;;;7.80;99.90;;;;;;5041847;28;20056;-71
2022/12/25 08:01:18;;;;;;;68.35;50.55;;;8.00;99.90;;;;;;5043647;28;20017;-73
2022/12/25 08:03:49;;;;;;;66.82;48.95;;;8.00;99.90;;;;;;5041961;28;20480;-70
2022/12/25 08:06:15;;;;;;;62.17;44.65;;;8.10;99.90;;;;;;5042860;28;20021;-71
2022/12/25 08:08:41;;;;;;;47.58;35.47;;;8.10;99.90;;;;;;5023920;28;20030;-72
2022/12/25 08:11:08;;;;;;;52.67;37.45;;;8.20;99.90;;;;;;5041866;28;20029;-71
2022/12/25 08:13:35;;;;;;;63.28;43.42;;;8.30;99.90;;;;;;5043078;28;20134;-71
2022/12/25 08:16:03;;;;;;;61.85;45.03;;;8.30;99.90;;;;;;5041824;28;20090;-71
2022/12/25 08:18:30;;;;;;;74.25;51.67;;;8.40;99.90;;;;;;5041412;28;20056;-71
2022/12/25 08:21:00;;;;;;;79.80;58.85;;;8.50;99.90;;;;;;5042823;28;20551;-72
2022/12/25 08:23:26;;;;;;;80.28;60.03;;;8.60;99.90;;;;;;5045086;28;20032;-72
2022/12/25 08:25:52;;;;;;;83.70;60.38;;;8.60;99.90;;;;;;5055469;28;20017;-72
2022/12/25 08:28:17;;;;;;;97.03;68.50;;;8.70;99.90;;;;;;5047202;28;20033;-72
2022/12/25 08:30:43;;;;;;;108.85;75.05;;;8.80;99.90;;;;;;5045490;28;20480;-73
2022/12/25 08:33:09;;;;;;;96.30;69.82;;;8.70;99.90;;;;;;5046660;28;20052;-72
2022/12/25 08:35:35;;;;;;;88.70;68.00;;;8.80;99.90;;;;;;5044646;28;20073;-72
2022/12/25 08:38:01;;;;;;;87.10;64.95;;;8.90;99.90;;;;;;5045500;28;20094;-72
2022/12/25 08:40:27;;;;;;;92.22;67.18;;;8.90;99.90;;;;;;5046621;28;20037;-72
2022/12/25 08:42:56;;;;;;;92.72;65.95;;;9.00;99.90;;;;;;5044493;28;20392;-72
2022/12/25 08:45:22;;;;;;;98.70;72.90;;;9.20;99.90;;;;;;5044968;28;20104;-71
2022/12/25 08:47:55;;;;;;;92.43;72.43;;;9.20;99.90;;;;;;5046331;28;20104;-71
2022/12/25 08:50:23;;;;;;;92.38;72.95;;;9.30;99.90;;;;;;5045386;28;20026;-72
2022/12/25 08:52:49;;;;;;;100.60;70.70;;;9.40;99.90;;;;;;5044234;28;20047;-71
2022/12/25 08:55:15;;;;;;;100.30;69.88;;;9.40;99.90;;;;;;5046146;28;20055;-71
2022/12/25 08:57:42;;;;;;;94.20;69.25;;;9.50;99.90;;;;;;5045374;28;20373;-72
2022/12/25 09:00:08;;;;;;;91.38;70.65;;;9.50;99.90;;;;;;5044291;28;20551;-71
2022/12/25 09:02:34;;;;;;;93.35;72.80;;;9.60;99.90;;;;;;5044286;28;20101;-71
2022/12/25 09:05:00;;;;;;;91.28;74.85;;;9.70;99.90;;;;;;5044984;28;20167;-71
2022/12/25 09:07:26;;;;;;;96.45;77.88;;;9.80;99.90;;;;;;5045125;28;20481;-71
2022/12/25 09:09:51;;;;;;;102.05;80.95;;;9.90;99.90;;;;;;5051809;28;20024;-69
2022/12/25 09:12:17;;;;;;;104.20;80.43;;;9.90;99.90;;;;;;5036617;28;20041;-70
2022/12/25 09:14:43;;;;;;;101.10;77.15;;;10.00;99.90;;;;;;5048278;28;20030;-70
2022/12/25 09:17:09;;;;;;;112.72;88.35;;;10.10;99.90;;;;;;5047993;28;20433;-72
2022/12/25 09:19:35;;;;;;;121.90;97.72;;;10.30;99.90;;;;;;5048517;28;20029;-71
2022/12/25 09:22:01;;;;;;;94.28;77.20;;;10.40;99.90;;;;;;5053264;28;20033;-71
2022/12/25 09:24:26;;;;;;;74.70;56.17;;;10.40;99.90;;;;;;5051989;28;20047;-72
2022/12/25 09:26:52;;;;;;;55.80;42.05;;;10.60;99.90;;;;;;5053502;28;20507;-71
2022/12/25 09:29:18;;;;;;;54.35;40.80;;;10.60;99.90;;;;;;5051242;28;20037;-70
2022/12/25 09:31:44;;;;;;;66.75;46.92;;;10.50;99.90;;;;;;5046290;28;20021;-72
2022/12/25 09:34:10;;;;;;;64.43;46.63;;;10.40;99.90;;;;;;5043459;28;20038;-72
2022/12/25 09:36:36;;;;;;;67.32;48.60;;;10.30;99.90;;;;;;5044770;28;20078;-73
2022/12/25 09:39:02;;;;;;;65.38;49.13;;;10.60;99.90;;;;;;5044917;28;20033;-71
2022/12/25 09:41:53;;;;;;;65.68;47.72;;;10.60;99.90;;;;;;5043480;28;20033;-71
2022/12/25 09:44:27;;;;;;;58.05;44.65;;;10.70;99.90;;;;;;4949972;29;20082;-72
2022/12/25 09:46:58;;;;;;;61.22;49.30;;;10.80;99.90;;;;;;4950010;29;20570;-71
2022/12/25 09:49:36;;;;;;;61.25;47.28;;;10.60;99.90;;;;;;4951385;29;20040;-71
2022/12/25 09:52:07;;;;;;;57.85;46.42;;;10.70;99.90;;;;;;4952831;29;20094;-71
2022/12/25 09:54:55;;;;;;;64.60;47.55;;;10.80;99.90;;;;;;4952140;29;20078;-71
2022/12/25 09:57:24;;;;;;;66.28;48.78;;;10.80;99.90;;;;;;4879974;29;20097;-71
2022/12/25 09:59:53;;;;;;;66.78;47.65;;;11.00;99.90;;;;;;4887834;29;20423;-71
2022/12/25 10:02:40;;;;;;;51.38;37.47;;;11.00;99.90;;;;;;4885630;29;20037;-72
2022/12/25 10:05:14;;;;;;;53.92;41.17;;;11.00;99.90;;;;;;4861172;29;20096;-71
2022/12/25 10:08:06;;;;;;;57.53;40.63;;;11.00;99.90;;;;;;4875900;29;20513;-71
2022/12/25 10:10:49;;;;;;;49.13;38.20;;;11.10;99.90;;;;;;4876680;29;20032;-71
2022/12/25 10:13:45;;;;;;;46.55;31.92;;;11.40;99.90;;;;;;4879950;29;20059;-73
2022/12/25 10:16:43;;;;;;;40.53;28.92;;;11.40;99.90;;;;;;4878040;29;20045;-73
2022/12/25 10:19:33;;;;;;;45.85;32.65;;;11.50;99.90;;;;;;4881157;29;20485;-69
2022/12/25 10:22:10;;;;;;;42.55;29.77;;;11.40;99.90;;;;;;4938392;28;20384;-69
2022/12/25 10:24:42;;;;;;;40.80;28.88;;;11.60;99.90;;;;;;4970341;28;20050;-69
2022/12/25 10:27:45;;;;;;;35.47;26.00;;;11.50;99.90;;;;;;4970318;28;20390;-70
2022/12/25 10:30:18;;;;;;;40.28;29.10;;;11.60;99.90;;;;;;4914026;29;20827;-69
2022/12/25 10:32:44;;;;;;;40.38;27.25;;;11.80;99.90;;;;;;4915394;29;20543;-69
2022/12/25 10:35:15;;;;;;;37.72;26.33;;;11.90;99.90;;;;;;4947072;29;20059;-69
2022/12/25 10:37:43;;;;;;;37.95;26.15;;;12.00;99.90;;;;;;4953467;29;20422;-70
2022/12/25 10:40:32;;;;;;;39.00;27.58;;;12.20;99.90;;;;;;4953511;29;20035;-71
2022/12/25 10:43:10;;;;;;;41.75;29.08;;;12.30;99.90;;;;;;4943592;29;20114;-72
2022/12/25 10:45:47;;;;;;;34.28;28.10;;;12.40;99.90;;;;;;4953517;28;20047;-69
2022/12/25 10:48:27;;;;;;;29.48;21.58;;;12.50;99.90;;;;;;4953433;29;20134;-69
2022/12/25 10:50:54;;;;;;;37.00;28.50;;;12.50;99.90;;;;;;4953575;29;20079;-69
2022/12/25 10:53:26;;;;;;;30.85;22.13;;;12.50;99.90;;;;;;4953498;28;20031;-69
2022/12/25 10:56:03;;;;;;;31.47;20.83;;;12.70;99.90;;;;;;4953454;29;20403;-69
2022/12/25 10:58:29;;;;;;;23.02;14.57;;;12.70;99.90;;;;;;4953204;29;20035;-69
2022/12/25 11:01:02;;;;;;;22.17;13.35;;;12.80;99.90;;;;;;4953441;29;20032;-68
2022/12/25 11:03:37;;;;;;;19.42;12.77;;;12.80;99.90;;;;;;4972782;28;20044;-69
2022/12/25 11:06:04;;;;;;;21.35;11.70;;;12.80;99.90;;;;;;5052630;28;20037;-69
2022/12/25 11:08:32;;;;;;;21.35;13.43;;;12.90;99.90;;;;;;5052434;28;20021;-69
2022/12/25 11:11:05;;;;;;;22.38;15.25;;;13.00;99.90;;;;;;5051159;28;20108;-69
2022/12/25 11:13:35;;;;;;;;;;;13.10;99.90;;;;;;5052763;28;20106;-69
2022/12/25 11:16:13;;;;;;;15.55;9.30;;;13.10;99.90;;;;;;5052396;28;19952;-69
2022/12/25 11:18:48;;;;;;;14.95;8.40;;;13.10;99.90;;;;;;5052051;28;20025;-69
2022/12/25 11:21:22;;;;;;;16.65;10.65;;;13.20;99.90;;;;;;5052244;28;20120;-69
2022/12/25 11:23:55;;;;;;;18.23;10.15;;;13.30;99.90;;;;;;5052281;28;20025;-69
2022/12/25 11:26:21;;;;;;;14.38;7.55;;;13.40;99.90;;;;;;5052531;28;20387;-69
2022/12/25 11:28:49;;;;;;;12.43;6.38;;;13.40;99.90;;;;;;5052420;28;20025;-69
2022/12/25 11:31:18;;;;;;;9.88;5.25;;;13.50;99.90;;;;;;5047766;28;20499;-69
2022/12/25 11:34:02;;;;;;;10.80;5.55;;;13.60;99.90;;;;;;5050630;28;20058;-69
2022/12/25 11:36:47;;;;;;;11.30;5.78;;;13.70;99.90;;;;;;5048641;28;20029;-69
2022/12/25 11:39:24;;;;;;;10.65;5.72;;;13.70;99.90;;;;;;5050018;28;20029;-69
2022/12/25 11:42:06;;;;;;;10.52;5.13;;;13.70;99.90;;;;;;5052154;28;20021;-69
2022/12/25 11:45:01;;;;;;;16.23;7.68;;;13.70;99.90;;;;;;5052235;28;20118;-69
2022/12/25 11:47:37;;;;;;;11.15;6.20;;;13.80;99.90;;;;;;5038515;28;20034;-70
2022/12/25 11:50:26;;;;;;;9.70;5.35;;;13.80;99.90;;;;;;5052645;28;20040;-69
2022/12/25 11:52:53;;;;;;;14.88;7.68;;;13.90;99.90;;;;;;5045257;28;20048;-69
2022/12/25 11:55:43;;;;;;;10.38;6.00;;;13.90;99.90;;;;;;5044261;28;20068;-69
2022/12/25 11:58:21;;;;;;;12.48;6.38;;;14.00;99.90;;;;;;5045170;28;20025;-69
2022/12/25 12:00:50;;;;;;;14.20;6.78;;;14.00;99.90;;;;;;5053861;28;20048;-72
2022/12/25 12:03:36;;;;;;;14.57;6.45;;;14.00;99.90;;;;;;5046254;28;20377;-69
2022/12/25 12:06:03;;;;;;;12.80;5.32;;;13.90;99.90;;;;;;5054086;28;20041;-69
2022/12/25 12:08:31;;;;;;;8.95;4.10;;;13.90;99.90;;;;;;5055174;28;20116;-72
2022/12/25 12:11:22;;;;;;;8.77;3.92;;;13.90;99.90;;;;;;5056618;28;20111;-70
2022/12/25 12:14:13;;;;;;;5.25;2.88;;;13.90;99.90;;;;;;5046338;28;20121;-68
2022/12/25 12:16:38;;;;;;;7.45;3.35;;;13.80;99.90;;;;;;5056304;28;20032;-69
2022/12/25 12:19:26;;;;;;;7.88;3.15;;;13.90;99.90;;;;;;5056050;28;20017;-69
2022/12/25 12:21:55;;;;;;;9.68;4.35;;;13.90;99.90;;;;;;5052704;28;20471;-70
2022/12/25 12:24:23;;;;;;;5.82;2.67;;;14.00;99.90;;;;;;5056227;28;20029;-69
2022/12/25 12:27:02;;;;;;;14.85;7.00;;;13.90;99.90;;;;;;5049352;28;20031;-68
2022/12/25 12:29:33;;;;;;;19.95;9.93;;;13.90;99.90;;;;;;5046080;28;20021;-69
2022/12/25 12:32:02;;;;;;;10.07;5.00;;;13.90;99.90;;;;;;5038833;28;20503;-68
2022/12/25 12:34:29;;;;;;;9.77;4.68;;;13.90;99.90;;;;;;5048093;28;20044;-69
2022/12/25 12:37:01;;;;;;;16.55;6.35;;;13.90;99.90;;;;;;5048770;28;20035;-71
2022/12/25 12:39:38;;;;;;;13.57;6.47;;;13.80;99.90;;;;;;5054323;28;20036;-69
2022/12/25 12:42:15;;;;;;;17.52;7.40;;;13.90;99.90;;;;;;5053271;28;20057;-69
2022/12/25 12:44:42;;;;;;;18.60;8.27;;;13.80;99.90;;;;;;5050054;28;20152;-71
2022/12/25 12:47:42;;;;;;;18.65;7.82;;;13.80;99.90;;;;;;5047419;28;20457;-68
2022/12/25 12:50:30;;;;;;;13.77;7.35;;;13.70;99.90;;;;;;5044604;28;20034;-71
2022/12/25 12:52:56;;;;;;;25.83;10.20;;;13.70;99.90;;;;;;5048192;28;20017;-69
2022/12/25 12:55:33;;;;;;;7.10;4.03;;;13.70;99.90;;;;;;5055226;28;20111;-69
2022/12/25 12:58:02;;;;;;;18.83;6.38;;;13.70;99.90;;;;;;5055398;28;20032;-70
2022/12/25 13:00:55;;;;;;;11.60;6.30;;;13.60;99.90;;;;;;5052911;28;20052;-71
2022/12/25 13:03:30;;;;;;;12.18;5.80;;;13.70;99.90;;;;;;5041889;28;20036;-70
2022/12/25 13:06:10;;;;;;;15.30;6.70;;;13.70;99.90;;;;;;5052320;28;20477;-69
2022/12/25 13:08:45;;;;;;;17.08;8.27;;;13.70;99.90;;;;;;5055452;28;20498;-70
2022/12/25 13:11:17;;;;;;;13.02;6.25;;;13.70;99.90;;;;;;5055372;28;20028;-70
2022/12/25 13:13:46;;;;;;;20.05;6.68;;;13.70;99.90;;;;;;5054584;28;20079;-70
2022/12/25 13:16:34;;;;;;;10.18;3.83;;;13.60;99.90;;;;;;5055239;28;20032;-70
2022/12/25 13:19:06;;;;;;;10.07;5.53;;;13.60;99.90;;;;;;5055290;28;20036;-72
2022/12/25 13:21:32;;;;;;;17.80;8.40;;;13.60;99.90;;;;;;5055136;28;20477;-72
2022/12/25 13:24:02;;;;;;;12.15;5.88;;;13.60;99.90;;;;;;5054720;28;20053;-69
2022/12/25 13:26:29;;;;;;;11.45;5.30;;;13.60;99.90;;;;;;5046650;28;20117;-69
2022/12/25 13:28:55;;;;;;;16.17;8.25;;;13.60;99.90;;;;;;5054733;28;20023;-70
2022/12/25 13:31:23;;;;;;;11.27;5.75;;;13.50;99.90;;;;;;5054762;28;20064;-71
2022/12/25 13:34:02;;;;;;;13.93;6.60;;;13.50;99.90;;;;;;5036886;28;20083;-72
2022/12/25 13:36:34;;;;;;;12.38;7.55;;;13.50;99.90;;;;;;5054999;28;20063;-73
2022/12/25 13:39:00;;;;;;;17.27;7.83;;;13.40;99.90;;;;;;5054918;28;20086;-70
2022/12/25 13:44:22;;;;;;;14.57;7.38;;;13.20;99.90;;;;;;5044606;28;20524;-69
2022/12/25 13:46:48;;;;;;;17.80;9.52;;;13.20;99.90;;;;;;5034823;28;20104;-69
2022/12/25 13:49:21;;;;;;;20.20;10.05;;;13.10;99.90;;;;;;5033878;28;20060;-69
2022/12/25 13:51:48;;;;;;;49.20;26.90;;;13.00;99.90;;;;;;5034575;28;20060;-69
2022/12/25 13:54:15;;;;;;;31.55;16.65;;;12.90;99.90;;;;;;5034004;28;20033;-69
2022/12/25 13:56:50;;;;;;;32.88;14.75;;;12.80;99.90;;;;;;5034595;28;20460;-68
2022/12/25 13:59:23;;;;;;;24.73;12.85;;;12.80;99.90;;;;;;5016393;28;20047;-68
2022/12/25 14:01:51;;;;;;;30.67;17.45;;;12.80;99.90;;;;;;5037225;28;20405;-69
2022/12/25 14:04:22;;;;;;;35.17;21.83;;;12.80;99.90;;;;;;5044973;28;20060;-68
2022/12/25 14:06:49;;;;;;;45.80;29.55;;;12.90;99.90;;;;;;5048438;28;20043;-70
2022/12/25 14:09:16;;;;;;;19.75;9.95;;;12.90;99.90;;;;;;5042986;28;20025;-69
2022/12/25 14:11:48;;;;;;;26.33;17.52;;;12.90;99.90;;;;;;5050495;28;20091;-69
2022/12/25 14:14:19;;;;;;;19.65;10.30;;;12.90;99.90;;;;;;5053057;28;20040;-68
2022/12/25 14:16:48;;;;;;;18.20;11.25;;;12.90;99.90;;;;;;5050356;28;20024;-67
2022/12/25 14:19:26;;;;;;;18.55;9.35;;;13.00;99.90;;;;;;5049608;28;20017;-68
2022/12/25 14:21:59;;;;;;;17.77;8.80;;;13.00;99.90;;;;;;5051102;28;20048;-68
2022/12/25 14:24:27;;;;;;;17.80;8.77;;;13.00;99.90;;;;;;5042785;28;20033;-68
2022/12/25 14:26:58;;;;;;;18.00;9.15;;;12.90;99.90;;;;;;5045276;28;20026;-68
2022/12/25 14:29:28;;;;;;;17.95;9.55;;;12.90;99.90;;;;;;5043031;28;20068;-68
2022/12/25 14:31:57;;;;;;;29.10;15.23;;;12.80;99.90;;;;;;5043997;28;20078;-68
2022/12/25 14:34:24;;;;;;;20.35;9.88;;;12.80;99.90;;;;;;5043069;28;20028;-73